EDLV

Niederrhein Airport

Weeze, Germany
METAR EDLV 170550Z 27005KT 7000 FEW042 01/00 Q1020
Observed Flight Rules
Dec-17 @ 05:50 UTC (31 minutes ago) Marginal Visual Flight Rules
Wind Visibility Clouds
270° at 5 knots 7,001 meters
  • Few at 4,200' AGL
Temperatures Readings
Current 1°C / 34°F
Dewpoint 0°C / 32°F
Humidity 93%
Altimeter 30.12" Hg
Pressure 1020 hPa
Elevation 32
METAR EDLV 170550Z 27005KT 7000 FEW042 01/00 Q1020
Observed Flight Rules
Dec-17 @ 05:50 UTC
(31 minutes ago)
MVFR
Wind Visibility
270° at 5 knots 7,001 meters
Clouds
  • Few at 4,200' AGL
Temperature Dewpoint
1°C / 34°F 0°C / 32°F
Humidity Altimeter Pressure
93% 30.12" Hg 1020 hPa